• Join FlightAware (Why Join?)
  • Login
  • US Flag 
02:38AM EDT


 

Airport Tracker/Info


-or-


 

Live Flight TrackerFlight Track Log ✈ N77HE ✈ 25-May-2013 ✈ KICT - KGBD

Flight Track Log - Related Links

Times and Time Zones

All times are in EDT time to prevent confusion due to time zone crossing. See the N77HE flight status page for this flight to view local times or setup timezone preferences in your user account.

Time Position Orientation Groundspeed Altitude Reporting Facility
EDT Latitude Longitude Course Direction KTS MPH feet Rate Location/Type
04:50AM 37.6375 -97.4625 294° West 153 176 3,600  Level Kansas City Center
04:51AM 37.6522 -97.5053 294° West 137 158 5,100 1,380 Climbing Kansas City Center
04:52AM 37.6831 -97.5403 318° Northwest 149 171 6,400 1,200 Climbing Kansas City Center
04:53AM 37.7017 -97.5822 299° West 135 155 7,600 780 Climbing Kansas City Center
04:54AM 37.7147 -97.6306 289° West 140 161 8,000 180 Climbing Kansas City Center
04:55AM 37.7406 -97.6883 299° West 168 193 8,000  Level Kansas City Center
04:56AM 37.7761 -97.7439 309° West 189 217 8,000  Level Kansas City Center
04:57AM 37.8089 -97.7994 307° West 194 223 8,000  Level Kansas City Center
04:58AM 37.8392 -97.8581 303° West 197 227 8,000  Level Kansas City Center
04:59AM 37.8678 -97.9164 302° West 194 223 8,000  Level Kansas City Center
05:00AM 37.8978 -97.9764 302° West 196 226 8,000  Level Kansas City Center
05:01AM 37.9278 -98.0347 303° West 195 224 8,000  Level Kansas City Center
05:02AM 37.9569 -98.0919 303° West 193 222 8,000  Level Kansas City Center
05:03AM 37.9853 -98.1508 301° West 194 223 8,100  Climbing Kansas City Center
05:04AM 38.0144 -98.2086 303° West 195 224 8,100  Level Kansas City Center
05:05AM 38.0444 -98.2669 303° West 196 226 8,100  Level Kansas City Center
05:06AM 38.0733 -98.3239 303° West 193 222 8,100 -60 Level Kansas City Center
05:07AM 38.1028 -98.3828 302° West 196 226 8,000 -600 Descending Kansas City Center
05:08AM 38.1339 -98.4450 302° West 206 237 7,000 -1,140 Descending Kansas City Center
05:09AM 38.1772 -98.5069 312° West 226 260 5,800 -960 Descending Kansas City Center
05:10AM 38.2103 -98.5611 308° West 212 244 5,100 -720 Descending Kansas City Center
05:11AM 38.2419 -98.6100 310° West 192 221 4,400 -720 Descending Kansas City Center